createdAt,value
2022-08-26T00:01:56.517Z,20.77
2022-08-26T00:04:25.625Z,22.98
2022-08-26T00:06:55.651Z,20.00
2022-08-26T00:09:24.614Z,19.60
2022-08-26T00:11:54.099Z,19.80
2022-08-26T00:14:27.008Z,20.50
2022-08-26T00:16:57.254Z,20.17
2022-08-26T00:19:25.395Z,20.17
2022-08-26T00:21:54.369Z,19.85
2022-08-26T00:24:23.687Z,18.15
2022-08-26T00:26:51.779Z,19.80
2022-08-26T00:29:21.375Z,18.88
2022-08-26T00:31:50.014Z,19.08
2022-08-26T00:34:19.287Z,17.70
2022-08-26T00:36:51.781Z,20.67
2022-08-26T00:39:21.047Z,18.63
2022-08-26T00:41:48.882Z,18.20
2022-08-26T00:44:17.567Z,18.58
2022-08-26T00:46:53.993Z,19.90
2022-08-26T00:49:30.836Z,20.95
2022-08-26T00:52:03.408Z,20.30
2022-08-26T00:54:35.528Z,21.67
2022-08-26T00:57:08.756Z,21.52
2022-08-26T00:59:48.479Z,23.05
2022-08-26T01:02:20.817Z,20.83
2022-08-26T01:04:55.769Z,21.15
2022-08-26T01:07:26.442Z,17.83
2022-08-26T01:09:56.084Z,19.08
2022-08-26T01:12:25.724Z,17.65
2022-08-26T01:14:54.027Z,18.27
2022-08-26T01:17:21.493Z,20.10
2022-08-26T01:20:02.925Z,19.67
2022-08-26T01:22:52.376Z,23.73
2022-08-26T01:25:21.540Z,22.83
2022-08-26T01:27:50.856Z,20.40
2022-08-26T01:30:19.538Z,21.08
2022-08-26T01:32:49.233Z,21.83
2022-08-26T01:35:16.970Z,20.52
2022-08-26T01:37:48.371Z,19.60
2022-08-26T01:40:21.971Z,18.95
2022-08-26T01:42:50.371Z,21.27
2022-08-26T01:45:23.096Z,18.23
2022-08-26T01:47:57.064Z,18.27
2022-08-26T01:50:33.155Z,19.02
2022-08-26T01:53:06.136Z,49.58
2022-08-26T01:55:34.667Z,94.70
2022-08-26T01:58:06.490Z,96.43
2022-08-26T02:00:36.061Z,91.13
2022-08-26T02:03:18.802Z,68.85
2022-08-26T02:05:56.860Z,95.00
2022-08-26T02:08:31.224Z,95.55
2022-08-26T02:11:00.376Z,92.88
2022-08-26T02:13:31.573Z,98.10
2022-08-26T02:16:01.595Z,103.15
2022-08-26T02:18:33.100Z,101.00
2022-08-26T02:21:00.701Z,100.47
2022-08-26T02:23:28.425Z,99.38
2022-08-26T02:26:10.300Z,97.65
2022-08-26T02:29:09.988Z,96.35
2022-08-26T02:31:37.790Z,98.07
2022-08-26T02:34:14.038Z,98.05
2022-08-26T02:36:42.850Z,101.78
2022-08-26T02:39:11.200Z,99.13
2022-08-26T02:41:44.951Z,98.55
2022-08-26T02:44:13.362Z,95.63
2022-08-26T02:49:23.870Z,97.95
2022-08-26T02:51:52.140Z,102.30
2022-08-26T02:54:24.135Z,93.65
2022-08-26T02:56:51.687Z,92.53
2022-08-26T02:59:19.158Z,100.63
2022-08-26T03:01:52.450Z,98.75
2022-08-26T03:04:23.676Z,95.88
2022-08-26T03:06:55.442Z,100.57
2022-08-26T03:09:23.889Z,99.28
2022-08-26T03:11:52.219Z,94.00
2022-08-26T03:14:19.652Z,96.93
2022-08-26T03:16:51.017Z,98.90
2022-08-26T03:19:18.753Z,99.93
2022-08-26T03:21:47.345Z,65.85
2022-08-26T03:24:15.979Z,72.10
2022-08-26T03:26:52.367Z,93.57
2022-08-26T03:29:40.675Z,21.70
2022-08-26T03:32:09.213Z,25.42
2022-08-26T03:34:37.908Z,90.47
2022-08-26T03:37:06.383Z,18.85
2022-08-26T03:39:33.868Z,17.77
2022-08-26T03:42:01.721Z,15.88
2022-08-26T03:44:29.254Z,17.83
2022-08-26T03:46:56.784Z,16.83
2022-08-26T03:49:24.308Z,20.63
2022-08-26T03:51:51.915Z,18.10
2022-08-26T03:54:19.480Z,18.13
2022-08-26T03:56:47.714Z,20.88
2022-08-26T03:59:15.430Z,17.52
2022-08-26T04:01:43.043Z,18.88
2022-08-26T04:04:10.387Z,18.50
2022-08-26T04:06:44.533Z,19.70
2022-08-26T04:09:20.166Z,21.65
2022-08-26T04:11:50.660Z,21.38
2022-08-26T04:14:23.823Z,20.17
2022-08-26T04:16:52.774Z,21.85
2022-08-26T04:19:24.391Z,19.58
2022-08-26T04:21:53.337Z,22.73
2022-08-26T04:24:23.481Z,17.33
2022-08-26T04:26:51.353Z,17.45
2022-08-26T04:29:24.175Z,22.70
2022-08-26T04:31:55.490Z,26.00
2022-08-26T04:34:29.017Z,20.73
2022-08-26T04:36:58.188Z,21.45
2022-08-26T04:39:27.561Z,24.15
2022-08-26T04:41:55.747Z,74.55
2022-08-26T04:44:27.573Z,76.97
2022-08-26T04:46:56.564Z,19.98
2022-08-26T04:49:24.279Z,16.45
2022-08-26T04:51:53.780Z,19.00
2022-08-26T04:54:22.532Z,24.48
2022-08-26T04:56:50.862Z,16.63
2022-08-26T04:59:19.216Z,17.52
2022-08-26T05:01:52.829Z,16.80
2022-08-26T05:04:21.269Z,14.23
2022-08-26T05:06:51.010Z,20.60
2022-08-26T05:09:20.080Z,18.63
2022-08-26T05:11:52.325Z,21.20
2022-08-26T05:14:22.431Z,23.20
2022-08-26T05:16:49.987Z,24.67
2022-08-26T05:19:19.248Z,30.73
2022-08-26T05:21:49.507Z,27.75
2022-08-26T05:24:18.020Z,24.67
2022-08-26T05:26:45.498Z,20.20
2022-08-26T05:29:13.302Z,26.52
2022-08-26T05:31:40.865Z,30.15
2022-08-26T05:34:08.620Z,56.95
2022-08-26T05:36:37.137Z,70.15
2022-08-26T05:39:07.412Z,90.22
2022-08-26T05:41:38.387Z,33.38
2022-08-26T05:44:11.410Z,24.17
2022-08-26T05:46:41.327Z,22.13
2022-08-26T05:49:12.704Z,24.10
2022-08-26T05:51:41.945Z,23.83
2022-08-26T05:54:10.374Z,25.42
2022-08-26T05:56:39.688Z,23.70
2022-08-26T05:59:14.333Z,21.63
2022-08-26T06:01:43.814Z,19.00
2022-08-26T06:04:12.263Z,19.73
2022-08-26T06:06:42.816Z,19.20
2022-08-26T06:09:11.436Z,20.27
2022-08-26T06:11:39.850Z,16.00
2022-08-26T06:14:08.527Z,25.33
2022-08-26T06:16:40.838Z,17.95
2022-08-26T06:19:10.632Z,19.77
2022-08-26T06:21:41.699Z,17.02
2022-08-26T06:24:30.167Z,23.92
2022-08-26T06:27:03.395Z,17.90
2022-08-26T06:32:01.057Z,16.42
2022-08-26T06:34:31.506Z,21.70
2022-08-26T06:37:02.711Z,28.38
2022-08-26T06:39:31.782Z,15.32
2022-08-26T06:42:00.656Z,17.42
2022-08-26T06:44:28.514Z,17.95
2022-08-26T06:46:55.893Z,18.17
2022-08-26T06:49:27.493Z,25.85
2022-08-26T06:51:59.719Z,16.83
2022-08-26T06:54:31.842Z,24.75
2022-08-26T06:56:59.730Z,20.95
2022-08-26T06:59:27.258Z,23.48
2022-08-26T07:01:55.300Z,22.85
2022-08-26T07:04:24.716Z,18.63
2022-08-26T07:06:53.936Z,99.93
2022-08-26T07:09:23.916Z,14.00
2022-08-26T07:11:52.172Z,20.20
2022-08-26T07:14:21.641Z,16.90
2022-08-26T07:16:52.263Z,19.30
2022-08-26T07:19:30.401Z,21.77
2022-08-26T07:22:04.154Z,19.40
2022-08-26T07:24:36.951Z,21.05
2022-08-26T07:27:08.799Z,24.52
2022-08-26T07:29:37.814Z,20.23
2022-08-26T07:32:06.587Z,21.23
2022-08-26T07:34:34.613Z,17.92
2022-08-26T07:37:02.125Z,23.98
2022-08-26T07:39:32.755Z,19.17
2022-08-26T07:42:08.071Z,21.95
2022-08-26T07:44:37.605Z,22.95
2022-08-26T07:47:10.104Z,21.10
2022-08-26T07:49:56.450Z,20.20
2022-08-26T07:52:27.209Z,18.98
2022-08-26T07:54:56.738Z,17.60
2022-08-26T07:57:25.331Z,20.15
2022-08-26T07:59:55.261Z,18.75
2022-08-26T08:02:24.068Z,22.73
2022-08-26T08:04:52.014Z,17.98
2022-08-26T08:07:19.769Z,18.15
2022-08-26T08:09:51.468Z,19.42
2022-08-26T08:12:19.952Z,16.10
2022-08-26T08:14:48.517Z,15.93
2022-08-26T08:17:16.562Z,18.85
2022-08-26T08:19:43.983Z,19.02
2022-08-26T08:22:17.803Z,17.17
2022-08-26T08:24:49.790Z,23.10
2022-08-26T08:27:23.733Z,20.38
2022-08-26T08:29:54.914Z,24.30
2022-08-26T08:32:23.539Z,19.85
2022-08-26T08:34:50.848Z,26.38
2022-08-26T08:37:18.239Z,32.75
2022-08-26T08:39:45.767Z,104.68
2022-08-26T08:42:27.966Z,98.13
2022-08-26T08:44:58.869Z,98.20
2022-08-26T08:47:37.907Z,72.78
2022-08-26T08:50:37.349Z,50.05
2022-08-26T08:53:10.100Z,56.83
2022-08-26T08:55:55.071Z,73.20
2022-08-26T08:58:32.417Z,95.13
2022-08-26T09:01:09.873Z,26.20
2022-08-26T09:04:02.680Z,102.40
2022-08-26T09:06:31.047Z,77.00
2022-08-26T09:09:00.207Z,108.40
2022-08-26T09:11:27.765Z,117.95
2022-08-26T09:13:56.315Z,121.50
2022-08-26T09:16:45.253Z,84.82
2022-08-26T09:19:18.941Z,107.75
2022-08-26T09:21:46.744Z,107.10
2022-08-26T09:24:28.911Z,100.53
2022-08-26T09:26:59.315Z,101.43
2022-08-26T09:29:34.229Z,109.35
2022-08-26T09:32:24.415Z,105.60
2022-08-26T09:34:57.441Z,102.97
2022-08-26T09:40:24.041Z,104.80
2022-08-26T09:43:22.874Z,74.35
2022-08-26T09:46:11.062Z,80.15
2022-08-26T09:48:40.643Z,19.08
2022-08-26T09:51:23.359Z,30.40
2022-08-26T09:53:54.664Z,26.20
2022-08-26T09:56:27.616Z,26.92
2022-08-26T09:58:56.802Z,95.75
2022-08-26T10:01:24.262Z,84.95
2022-08-26T10:04:14.148Z,24.05
2022-08-26T10:06:56.390Z,95.15
2022-08-26T10:12:06.804Z,100.22
2022-08-26T10:14:48.165Z,79.53
2022-08-26T10:17:30.791Z,97.78
2022-08-26T10:20:23.407Z,19.88
2022-08-26T10:23:23.374Z,18.20
2022-08-26T10:26:09.783Z,19.23
2022-08-26T10:28:55.163Z,33.65
2022-08-26T10:31:38.202Z,103.10
2022-08-26T10:34:09.638Z,18.27
2022-08-26T10:37:13.397Z,74.63
2022-08-26T10:40:07.823Z,81.00
2022-08-26T10:42:40.734Z,95.00
2022-08-26T10:45:15.265Z,87.85
2022-08-26T10:48:00.169Z,90.90
2022-08-26T10:50:37.386Z,94.03
2022-08-26T10:53:25.308Z,77.13
2022-08-26T10:55:59.847Z,58.38
2022-08-26T10:58:34.394Z,86.25
2022-08-26T11:01:35.523Z,45.78
2022-08-26T11:04:45.646Z,69.50
2022-08-26T11:07:43.114Z,56.50
2022-08-26T11:10:52.586Z,77.47
2022-08-26T11:13:41.163Z,96.13
2022-08-26T11:16:32.281Z,76.68
2022-08-26T11:19:00.021Z,44.53
2022-08-26T11:24:56.812Z,23.27
2022-08-26T11:27:41.676Z,99.85
2022-08-26T11:30:21.275Z,101.70
2022-08-26T11:32:54.899Z,95.78
2022-08-26T11:35:34.795Z,96.70
2022-08-26T11:38:28.856Z,78.50
2022-08-26T11:41:11.372Z,82.93
2022-08-26T11:43:40.891Z,41.58
2022-08-26T11:46:10.830Z,45.72
2022-08-26T11:48:43.792Z,45.83
2022-08-26T11:51:20.838Z,46.53
2022-08-26T11:53:48.591Z,49.58
2022-08-26T11:56:25.398Z,51.90
2022-08-26T11:58:58.236Z,50.00
2022-08-26T12:01:33.339Z,47.30
2022-08-26T12:04:02.993Z,45.35
2022-08-26T12:06:38.904Z,49.80
2022-08-26T12:09:21.290Z,48.15
2022-08-26T12:11:49.142Z,46.35
2022-08-26T12:14:24.517Z,46.40
2022-08-26T12:17:08.402Z,50.25
2022-08-26T12:19:37.377Z,72.78
2022-08-26T12:22:15.935Z,53.25
2022-08-26T12:24:47.919Z,47.42
2022-08-26T12:27:21.733Z,44.65
2022-08-26T12:30:06.923Z,45.35
2022-08-26T12:32:56.661Z,47.22
2022-08-26T12:35:29.503Z,46.58
2022-08-26T12:37:59.183Z,48.42
2022-08-26T12:40:35.724Z,44.85
2022-08-26T12:43:06.749Z,46.50
2022-08-26T12:45:57.268Z,46.50
2022-08-26T12:48:34.013Z,47.58
2022-08-26T12:51:02.604Z,48.25
2022-08-26T12:53:33.255Z,48.80
2022-08-26T12:56:06.183Z,49.33
2022-08-26T13:01:06.726Z,50.38
2022-08-26T13:03:45.867Z,49.88
2022-08-26T13:06:40.611Z,46.28
2022-08-26T13:09:08.141Z,48.03
2022-08-26T13:11:41.647Z,45.17
2022-08-26T13:14:12.365Z,77.43
2022-08-26T13:16:47.591Z,141.27
2022-08-26T13:19:21.030Z,123.93
2022-08-26T13:21:54.807Z,99.45
2022-08-26T13:24:26.641Z,11.68
2022-08-26T13:26:54.315Z,91.93
2022-08-26T13:29:21.780Z,19.33
2022-08-26T13:31:51.614Z,15.43
2022-08-26T13:34:21.928Z,94.00
2022-08-26T13:36:51.995Z,16.25
2022-08-26T13:39:20.393Z,34.97
2022-08-26T13:41:48.290Z,77.55
2022-08-26T13:44:15.980Z,15.52
2022-08-26T13:49:16.150Z,20.35
2022-08-26T13:51:44.074Z,12.35
2022-08-26T13:54:11.783Z,94.57
2022-08-26T13:56:40.661Z,98.10
2022-08-26T13:59:08.278Z,103.25
2022-08-26T14:01:36.440Z,18.02
2022-08-26T14:04:04.790Z,13.48
2022-08-26T14:06:32.437Z,48.08
2022-08-26T14:09:00.746Z,12.88
2022-08-26T14:11:33.374Z,15.93
2022-08-26T14:14:17.858Z,16.40
2022-08-26T14:16:59.718Z,16.92
2022-08-26T14:19:32.198Z,16.85
2022-08-26T14:22:01.188Z,22.83
2022-08-26T14:24:29.348Z,91.50
2022-08-26T14:26:57.294Z,112.45
2022-08-26T14:29:24.808Z,76.95
2022-08-26T14:31:52.936Z,22.35
2022-08-26T14:34:20.318Z,19.05
2022-08-26T14:36:47.809Z,16.83
2022-08-26T14:39:15.218Z,21.23
2022-08-26T14:41:54.077Z,16.08
2022-08-26T14:44:31.863Z,26.92
2022-08-26T14:47:02.472Z,21.60
2022-08-26T14:49:31.473Z,20.38
2022-08-26T14:51:59.903Z,16.13
2022-08-26T14:54:29.568Z,19.58
2022-08-26T14:57:09.577Z,16.30
2022-08-26T14:59:43.647Z,16.10
2022-08-26T15:02:22.268Z,20.02
2022-08-26T15:05:02.542Z,18.65
2022-08-26T15:07:30.307Z,29.60
2022-08-26T15:09:57.814Z,80.43
2022-08-26T15:12:25.250Z,72.53
2022-08-26T15:14:52.730Z,101.82
2022-08-26T15:17:20.512Z,20.60
2022-08-26T15:19:48.080Z,13.98
2022-08-26T15:22:15.764Z,16.73
2022-08-26T15:24:43.525Z,22.50
2022-08-26T15:27:11.286Z,15.55
2022-08-26T15:29:39.566Z,15.23
2022-08-26T15:32:07.015Z,20.88
2022-08-26T15:34:34.613Z,19.77
2022-08-26T15:37:02.325Z,24.92
2022-08-26T15:39:29.877Z,16.30
2022-08-26T15:41:57.552Z,14.52
2022-08-26T15:44:27.268Z,14.98
2022-08-26T15:46:58.469Z,17.83
2022-08-26T15:49:27.775Z,20.52
2022-08-26T15:51:55.543Z,17.50
2022-08-26T15:54:24.494Z,19.13
2022-08-26T15:56:53.253Z,19.50
2022-08-26T15:59:22.296Z,20.58
2022-08-26T16:01:50.194Z,129.35
2022-08-26T16:04:18.826Z,797.78
2022-08-26T16:06:50.383Z,808.85
2022-08-26T16:09:19.586Z,794.22
2022-08-26T16:11:47.012Z,847.75
2022-08-26T16:14:14.560Z,851.50
2022-08-26T16:16:42.091Z,832.45
2022-08-26T16:19:09.718Z,879.78
2022-08-26T16:21:37.488Z,948.55
2022-08-26T16:24:06.066Z,866.92
2022-08-26T16:26:36.435Z,864.40
2022-08-26T16:29:10.274Z,844.63
2022-08-26T16:31:38.461Z,881.60
2022-08-26T16:34:07.008Z,905.83
2022-08-26T16:36:36.758Z,917.10
2022-08-26T16:39:05.226Z,898.70
2022-08-26T16:41:32.957Z,808.60
2022-08-26T16:44:00.924Z,843.63
2022-08-26T16:46:29.274Z,828.35
2022-08-26T16:48:58.261Z,891.35
2022-08-26T16:51:27.901Z,887.88
2022-08-26T16:53:56.988Z,820.42
2022-08-26T16:56:33.709Z,859.15
2022-08-26T16:59:04.326Z,873.70
2022-08-26T17:01:32.511Z,871.55
2022-08-26T17:03:59.977Z,876.85
2022-08-26T17:06:27.548Z,841.28
2022-08-26T17:08:54.935Z,833.03
2022-08-26T17:11:22.399Z,847.22
2022-08-26T17:13:49.840Z,845.50
2022-08-26T17:16:17.750Z,864.13
2022-08-26T17:18:45.186Z,877.05
2022-08-26T17:21:14.096Z,868.00
2022-08-26T17:23:43.144Z,881.40
2022-08-26T17:26:12.469Z,873.13
2022-08-26T17:28:40.659Z,914.67
2022-08-26T17:31:10.716Z,913.75
2022-08-26T17:33:38.881Z,896.15
2022-08-26T17:36:08.171Z,922.35
2022-08-26T17:38:36.789Z,915.70
2022-08-26T17:41:08.689Z,941.78
2022-08-26T17:43:36.612Z,922.90
2022-08-26T17:46:07.100Z,915.65
2022-08-26T17:48:36.288Z,929.63
2022-08-26T17:51:12.280Z,916.80
2022-08-26T17:53:41.433Z,931.05
2022-08-26T17:56:11.826Z,910.75
2022-08-26T17:58:40.822Z,895.65
2022-08-26T18:01:15.763Z,883.35
2022-08-26T18:03:43.360Z,868.08
2022-08-26T18:06:13.119Z,850.83
2022-08-26T18:08:41.519Z,838.78
2022-08-26T18:11:17.795Z,845.40
2022-08-26T18:13:47.414Z,818.60
2022-08-26T18:16:17.042Z,830.45
2022-08-26T18:18:44.910Z,839.47
2022-08-26T18:21:18.923Z,821.65
2022-08-26T18:23:47.238Z,852.97
2022-08-26T18:26:20.020Z,846.13
2022-08-26T18:28:47.689Z,823.67
2022-08-26T18:31:15.599Z,819.97
2022-08-26T18:33:43.507Z,800.13
2022-08-26T18:36:25.069Z,805.90
2022-08-26T18:38:53.498Z,799.35
2022-08-26T18:41:22.564Z,776.40
2022-08-26T18:43:51.882Z,818.67
2022-08-26T18:46:21.015Z,799.53
2022-08-26T18:48:51.105Z,801.45
2022-08-26T18:51:24.383Z,783.80
2022-08-26T18:53:52.248Z,796.92
2022-08-26T18:56:20.113Z,814.67
2022-08-26T18:58:48.155Z,797.75
2022-08-26T19:01:17.201Z,797.40
2022-08-26T19:03:45.608Z,797.50
2022-08-26T19:06:18.154Z,796.47
2022-08-26T19:08:46.242Z,824.13
2022-08-26T19:11:31.636Z,825.72
2022-08-26T19:14:04.807Z,810.80
2022-08-26T19:16:32.319Z,811.40
2022-08-26T19:19:01.540Z,805.03
2022-08-26T19:21:30.078Z,822.25
2022-08-26T19:24:00.190Z,824.72
2022-08-26T19:26:28.765Z,810.55
2022-08-26T19:28:56.520Z,827.65
2022-08-26T19:31:24.226Z,841.53
2022-08-26T19:33:51.626Z,820.88
2022-08-26T19:36:22.401Z,794.13
2022-08-26T19:38:50.560Z,837.90
2022-08-26T19:41:25.476Z,787.63
2022-08-26T19:43:59.005Z,785.85
2022-08-26T19:46:26.866Z,767.80
2022-08-26T19:48:55.839Z,802.35
2022-08-26T19:51:29.289Z,787.13
2022-08-26T19:56:24.894Z,802.15
2022-08-26T19:58:52.625Z,802.78
2022-08-26T20:01:20.035Z,799.10
2022-08-26T20:03:48.187Z,784.35
2022-08-26T20:06:18.675Z,841.00
2022-08-26T20:08:46.452Z,818.22
2022-08-26T20:11:17.290Z,845.40
2022-08-26T20:13:46.962Z,862.75
2022-08-26T20:16:15.607Z,823.55
2022-08-26T20:19:02.987Z,832.38
2022-08-26T20:21:35.725Z,831.92
2022-08-26T20:24:10.326Z,827.53
2022-08-26T20:26:40.553Z,827.10
2022-08-26T20:29:09.811Z,827.65
2022-08-26T20:31:38.316Z,827.15
2022-08-26T20:34:06.881Z,824.20
2022-08-26T20:36:34.687Z,820.28
2022-08-26T20:39:02.186Z,821.60
2022-08-26T20:41:29.598Z,829.03
2022-08-26T20:43:57.339Z,826.22
2022-08-26T20:46:25.489Z,826.88
2022-08-26T20:48:54.050Z,843.35
2022-08-26T20:51:23.729Z,842.03
2022-08-26T20:53:52.301Z,838.17
2022-08-26T20:56:23.970Z,832.53
2022-08-26T20:58:54.247Z,814.42
2022-08-26T21:01:26.379Z,806.60
2022-08-26T21:03:55.754Z,803.40
2022-08-26T21:06:23.632Z,807.05
2022-08-26T21:08:51.410Z,812.05
2022-08-26T21:11:20.993Z,818.47
2022-08-26T21:14:04.302Z,793.88
2022-08-26T21:16:36.924Z,791.80
2022-08-26T21:19:05.997Z,780.53
2022-08-26T21:21:34.398Z,787.45
2022-08-26T21:24:01.904Z,812.53
2022-08-26T21:26:29.763Z,821.50
2022-08-26T21:28:57.137Z,805.05
2022-08-26T21:31:25.529Z,821.85
2022-08-26T21:33:53.493Z,815.38
2022-08-26T21:36:21.249Z,799.33
2022-08-26T21:38:49.035Z,812.80
2022-08-26T21:41:19.672Z,819.15
2022-08-26T21:43:48.474Z,786.08
2022-08-26T21:46:19.285Z,833.90
2022-08-26T21:48:57.936Z,749.08
2022-08-26T21:51:32.682Z,772.08
2022-08-26T21:54:01.594Z,754.95
2022-08-26T21:56:31.989Z,788.58
2022-08-26T21:59:00.149Z,779.20
2022-08-26T22:01:34.941Z,787.75
2022-08-26T22:04:04.592Z,751.40
2022-08-26T22:06:34.408Z,755.42
2022-08-26T22:09:02.341Z,788.42
2022-08-26T22:11:29.875Z,785.63
2022-08-26T22:13:58.014Z,794.55
2022-08-26T22:16:26.994Z,784.92
2022-08-26T22:18:55.399Z,808.38
2022-08-26T22:21:26.531Z,786.92
2022-08-26T22:23:58.051Z,765.90
2022-08-26T22:26:30.211Z,796.92
2022-08-26T22:29:00.200Z,786.60
2022-08-26T22:31:37.969Z,792.88
2022-08-26T22:34:13.359Z,801.45
2022-08-26T22:36:44.292Z,767.80
2022-08-26T22:39:17.618Z,800.08
2022-08-26T22:41:46.275Z,802.03
2022-08-26T22:44:13.676Z,770.70
2022-08-26T22:46:42.725Z,807.40
2022-08-26T22:49:12.824Z,800.33
2022-08-26T22:51:40.310Z,816.90
2022-08-26T22:54:07.885Z,798.28
2022-08-26T22:56:36.295Z,791.50
2022-08-26T22:59:04.746Z,809.20
2022-08-26T23:01:35.841Z,820.03
2022-08-26T23:04:04.204Z,818.05
2022-08-26T23:06:40.569Z,822.00
2022-08-26T23:09:08.536Z,812.00
2022-08-26T23:11:37.353Z,813.13
2022-08-26T23:14:06.226Z,820.35
2022-08-26T23:16:41.837Z,819.47
2022-08-26T23:19:13.907Z,811.65
2022-08-26T23:21:42.058Z,797.88
2022-08-26T23:24:10.332Z,783.80
2022-08-26T23:26:39.038Z,793.92
2022-08-26T23:29:07.730Z,804.80
2022-08-26T23:31:37.853Z,780.58
2022-08-26T23:34:23.977Z,771.08
2022-08-26T23:36:52.493Z,771.08
2022-08-26T23:39:21.560Z,762.35
2022-08-26T23:41:49.134Z,760.67
2022-08-26T23:44:26.878Z,748.00
2022-08-26T23:46:55.423Z,774.40
2022-08-26T23:49:23.399Z,776.38
2022-08-26T23:52:10.731Z,777.47
2022-08-26T23:54:40.778Z,775.05
2022-08-26T23:57:09.560Z,766.80
2022-08-26T23:59:38.801Z,772.35
